Time;durP1;ratioP1;P1;durP2;ratioP2;P2;SDS_P1;SDS_P2;PMS_P1;PMS_P2;Temp;Humidity;BMP_temperature;BMP_pressure;BME280_temperature;BME280_humidity;BME280_pressure;Samples;Min_cycle;Max_cycle;Signal;HPM_P1;HPM_P2
2022/12/24 00:01:59;;;;;;;;;;;12.40;1.00;;;;;;6128447;23;19905;-78
2022/12/24 00:04:25;;;;;;;;;;;12.50;1.00;;;;;;6128345;23;19905;-79
2022/12/24 00:06:50;;;;;;;;;;;12.40;1.00;;;;;;6128140;23;20339;-80
2022/12/24 00:09:16;;;;;;;;;;;12.40;1.00;;;;;;6128070;23;19905;-78
2022/12/24 00:11:41;;;;;;;;;;;12.40;1.00;;;;;;6128551;23;19905;-78
2022/12/24 00:14:07;;;;;;;;;;;12.40;1.00;;;;;;6128303;23;19960;-79
2022/12/24 00:16:32;;;;;;;;;;;12.40;1.00;;;;;;6127754;23;19909;-79
2022/12/24 00:18:58;;;;;;;;;;;12.30;1.00;;;;;;6128068;23;20243;-79
2022/12/24 00:21:23;;;;;;;;;;;12.30;1.00;;;;;;6127955;23;19905;-79
2022/12/24 00:23:49;;;;;;;;;;;12.30;1.00;;;;;;6127910;23;19909;-78
2022/12/24 00:26:15;;;;;;;;;;;12.30;1.00;;;;;;6128126;23;19940;-80
2022/12/24 00:28:40;;;;;;;;;;;12.20;1.00;;;;;;6127972;23;19905;-79
2022/12/24 00:31:07;;;;;;;;;;;12.20;1.00;;;;;;6128080;23;19912;-79
2022/12/24 00:33:32;;;;;;;;;;;12.20;1.00;;;;;;6127770;23;19913;-79
2022/12/24 00:35:58;;;;;;;;;;;12.30;1.00;;;;;;6127827;23;20359;-79
2022/12/24 00:38:24;;;;;;;;;;;12.30;1.00;;;;;;6128229;23;19947;-79
2022/12/24 00:40:49;;;;;;;;;;;12.40;1.00;;;;;;6127733;23;19912;-78
2022/12/24 00:43:15;;;;;;;;;;;12.30;1.00;;;;;;6127739;23;19912;-79
2022/12/24 00:45:40;;;;;;;;;;;12.50;1.00;;;;;;6127945;23;20221;-80
2022/12/24 00:48:06;;;;;;;;;;;12.50;1.00;;;;;;6101684;23;19913;-79
2022/12/24 00:50:31;;;;;;;;;;;12.50;1.00;;;;;;6127917;23;20379;-79
2022/12/24 00:52:57;;;;;;;;;;;12.50;1.00;;;;;;6127600;23;19911;-78
2022/12/24 00:55:23;;;;;;;;;;;12.50;1.00;;;;;;6127576;23;20026;-80
2022/12/24 00:57:48;;;;;;;;;;;12.50;1.00;;;;;;6127839;23;20240;-79
2022/12/24 01:00:16;;;;;;;;;;;12.50;1.00;;;;;;6127542;23;19905;-79
2022/12/24 01:02:42;;;;;;;;;;;12.40;1.00;;;;;;6127561;23;19905;-78
2022/12/24 01:05:09;;;;;;;;;;;12.40;1.00;;;;;;6127555;23;20244;-79
2022/12/24 01:07:36;;;;;;;;;;;12.30;1.00;;;;;;6127535;23;19936;-79
2022/12/24 01:10:01;;;;;;;;;;;12.30;1.00;;;;;;6127456;23;20336;-78
2022/12/24 01:12:27;;;;;;;;;;;12.30;1.00;;;;;;6127486;23;19905;-79
2022/12/24 01:14:52;;;;;;;;;;;12.20;1.00;;;;;;6127554;23;19913;-79
2022/12/24 01:17:18;;;;;;;;;;;12.20;1.00;;;;;;6127436;23;19985;-79
2022/12/24 01:19:43;;;;;;;;;;;12.30;1.00;;;;;;6127418;23;19920;-80
2022/12/24 01:22:09;;;;;;;;;;;12.30;1.00;;;;;;6127898;23;19928;-80
2022/12/24 01:24:35;;;;;;;;;;;12.30;1.00;;;;;;6127380;23;19929;-79
2022/12/24 01:27:00;;;;;;;;;;;12.40;1.00;;;;;;6127402;23;20239;-79
2022/12/24 01:29:26;;;;;;;;;;;12.40;1.00;;;;;;6127018;23;19912;-80
2022/12/24 01:31:51;;;;;;;;;;;12.30;1.00;;;;;;6127307;23;19906;-79
2022/12/24 01:34:17;;;;;;;;;;;12.40;1.00;;;;;;6127636;23;19935;-80
2022/12/24 01:36:42;;;;;;;;;;;12.50;1.00;;;;;;6127622;23;19916;-79
2022/12/24 01:39:08;;;;;;;;;;;12.50;1.00;;;;;;6127277;23;19975;-79
2022/12/24 01:44:25;;;;;;;;;;;12.50;1.00;;;;;;6127012;23;19912;-79
2022/12/24 01:46:53;;;;;;;;;;;12.50;1.00;;;;;;6127220;23;19909;-79
2022/12/24 01:49:19;;;;;;;;;;;12.50;1.00;;;;;;6127159;23;20343;-79
2022/12/24 01:51:47;;;;;;;;;;;12.50;1.00;;;;;;6127165;23;19905;-79
2022/12/24 01:54:12;;;;;;;;;;;12.40;1.00;;;;;;6126969;23;19913;-80
2022/12/24 01:56:42;;;;;;;;;;;12.50;1.00;;;;;;6126843;23;19924;-79
2022/12/24 01:59:10;;;;;;;;;;;12.50;1.00;;;;;;6127109;23;19909;-79
2022/12/24 02:01:36;;;;;;;;;;;12.50;1.00;;;;;;6127123;23;19905;-80
2022/12/24 02:04:07;;;;;;;;;;;12.50;1.00;;;;;;6127035;23;19972;-80
2022/12/24 02:06:32;;;;;;;;;;;12.50;1.00;;;;;;6127094;23;19909;-80
2022/12/24 02:08:58;;;;;;;;;;;12.60;1.00;;;;;;6127013;23;20225;-81
2022/12/24 02:11:23;;;;;;;;;;;12.60;1.00;;;;;;6101080;23;19979;-80
2022/12/24 02:13:54;;;;;;;;;;;12.60;1.00;;;;;;6127168;23;19909;-80
2022/12/24 02:16:25;;;;;;;;;;;12.60;1.00;;;;;;6127164;23;19956;-80
2022/12/24 02:18:56;;;;;;;;;;;12.60;1.00;;;;;;6126965;23;19932;-80
2022/12/24 02:21:27;;;;;;;;;;;12.70;1.00;;;;;;6127810;23;19928;-81
2022/12/24 02:24:05;;;;;;;;;;;12.60;1.00;;;;;;6126931;23;19967;-80
2022/12/24 02:26:40;;;;;;;;;;;12.70;1.00;;;;;;6126908;23;19912;-79
2022/12/24 02:29:24;;;;;;;;;;;12.70;1.00;;;;;;6100185;23;19936;-80
2022/12/24 02:31:58;;;;;;;;;;;12.70;1.00;;;;;;6127219;23;20275;-80
2022/12/24 02:34:28;;;;;;;;;;;12.80;1.00;;;;;;6126937;23;19909;-79
2022/12/24 02:37:02;;;;;;;;;;;12.70;1.00;;;;;;6127178;23;19905;-80
2022/12/24 02:39:33;;;;;;;;;;;12.80;1.00;;;;;;6128580;23;19905;-80
2022/12/24 02:42:07;;;;;;;;;;;12.80;1.00;;;;;;6130361;23;19984;-80
2022/12/24 02:44:36;;;;;;;;;;;12.70;1.00;;;;;;6130242;23;20032;-80
2022/12/24 02:47:03;;;;;;;;;;;12.60;1.00;;;;;;6130059;23;20140;-80
2022/12/24 02:49:29;;;;;;;;;;;12.60;1.00;;;;;;6130093;23;20426;-80
2022/12/24 02:51:54;;;;;;;;;;;12.60;1.00;;;;;;6130128;23;19905;-79
2022/12/24 02:54:20;;;;;;;;;;;12.50;1.00;;;;;;6129905;23;19935;-80
2022/12/24 02:57:05;;;;;;;;;;;12.50;1.00;;;;;;6129630;23;19916;-79
2022/12/24 02:59:39;;;;;;;;;;;12.50;1.00;;;;;;6130027;23;19905;-80
2022/12/24 03:02:11;;;;;;;;;;;12.50;1.00;;;;;;6130400;23;19916;-80
2022/12/24 03:04:45;;;;;;;;;;;12.50;1.00;;;;;;6129950;23;19912;-81
2022/12/24 03:07:29;;;;;;;;;;;12.60;1.00;;;;;;6130084;23;19912;-80
2022/12/24 03:09:55;;;;;;;;;;;12.60;1.00;;;;;;6130197;23;19911;-80
2022/12/24 03:12:25;;;;;;;;;;;12.60;1.00;;;;;;6104060;23;19941;-79
2022/12/24 03:14:51;;;;;;;;;;;12.60;1.00;;;;;;6130309;23;19955;-81
2022/12/24 03:17:17;;;;;;;;;;;12.50;1.00;;;;;;6129941;23;20244;-80
2022/12/24 03:19:44;;;;;;;;;;;12.50;1.00;;;;;;6129958;23;19912;-80
2022/12/24 03:22:10;;;;;;;;;;;12.50;1.00;;;;;;6129946;23;19905;-80
2022/12/24 03:24:36;;;;;;;;;;;12.50;1.00;;;;;;6129981;23;20028;-80
2022/12/24 03:27:03;;;;;;;;;;;12.50;1.00;;;;;;6130039;23;20328;-80
2022/12/24 03:29:28;;;;;;;;;;;12.50;1.00;;;;;;6129901;23;19905;-80
2022/12/24 03:31:58;;;;;;;;;;;12.40;1.00;;;;;;6129902;23;19905;-80
2022/12/24 03:34:24;;;;;;;;;;;12.50;1.00;;;;;;6129744;23;19995;-80
2022/12/24 03:36:50;;;;;;;;;;;12.50;1.00;;;;;;6129824;23;19912;-80
2022/12/24 03:39:15;;;;;;;;;;;12.40;1.00;;;;;;6130182;23;19905;-79
2022/12/24 03:41:41;;;;;;;;;;;12.50;1.00;;;;;;6129903;23;19928;-80
2022/12/24 03:44:06;;;;;;;;;;;12.60;1.00;;;;;;6129974;23;19940;-80
2022/12/24 03:46:32;;;;;;;;;;;12.60;1.00;;;;;;6129838;23;19909;-80
2022/12/24 03:48:58;;;;;;;;;;;12.70;1.00;;;;;;6129832;23;19905;-80
2022/12/24 03:51:23;;;;;;;;;;;12.60;1.00;;;;;;6128864;23;19944;-79
2022/12/24 03:53:53;;;;;;;;;;;12.60;1.00;;;;;;6127984;23;19974;-81
2022/12/24 03:56:19;;;;;;;;;;;12.50;1.00;;;;;;6128099;23;19928;-81
2022/12/24 03:58:45;;;;;;;;;;;12.50;1.00;;;;;;6102260;23;19932;-80
2022/12/24 04:01:10;;;;;;;;;;;12.60;1.00;;;;;;6128208;23;19912;-80
2022/12/24 04:03:36;;;;;;;;;;;12.60;1.00;;;;;;6128149;23;19909;-80
2022/12/24 04:06:06;;;;;;;;;;;12.60;1.00;;;;;;6128407;23;19905;-80
2022/12/24 04:08:32;;;;;;;;;;;12.60;1.00;;;;;;6128128;23;19905;-80
2022/12/24 04:10:57;;;;;;;;;;;12.50;1.00;;;;;;6128638;23;19912;-80
2022/12/24 04:13:23;;;;;;;;;;;12.50;1.00;;;;;;6127960;23;20289;-80
2022/12/24 04:16:02;;;;;;;;;;;12.40;1.00;;;;;;6128030;23;19909;-80
2022/12/24 04:18:28;;;;;;;;;;;12.40;1.00;;;;;;6128311;23;19972;-81
2022/12/24 04:20:53;;;;;;;;;;;12.40;1.00;;;;;;6128246;23;19908;-80
2022/12/24 04:23:19;;;;;;;;;;;12.30;1.00;;;;;;6128181;23;19952;-80
2022/12/24 04:25:45;;;;;;;;;;;12.30;1.00;;;;;;6127919;23;19904;-80
2022/12/24 04:28:11;;;;;;;;;;;12.30;1.00;;;;;;6101935;23;20323;-80
2022/12/24 04:30:37;;;;;;;;;;;12.30;1.00;;;;;;6101925;23;20252;-79
2022/12/24 04:33:03;;;;;;;;;;;12.30;1.00;;;;;;6128546;23;19916;-80
2022/12/24 04:35:29;;;;;;;;;;;12.40;1.00;;;;;;6127799;23;19909;-80
2022/12/24 04:37:54;;;;;;;;;;;12.40;1.00;;;;;;6128012;23;19905;-80
2022/12/24 04:40:20;;;;;;;;;;;12.40;1.00;;;;;;6127933;23;19912;-80
2022/12/24 04:42:45;;;;;;;;;;;12.40;1.00;;;;;;6127800;23;20348;-80
2022/12/24 04:45:11;;;;;;;;;;;12.40;1.00;;;;;;6128258;23;20347;-80
2022/12/24 04:47:37;;;;;;;;;;;12.40;1.00;;;;;;6127929;23;19905;-79
2022/12/24 04:50:02;;;;;;;;;;;12.40;1.00;;;;;;6127776;23;19960;-79
2022/12/24 04:52:28;;;;;;;;;;;12.40;1.00;;;;;;6127582;23;20324;-79
2022/12/24 04:54:54;;;;;;;;;;;12.40;1.00;;;;;;6127384;23;19909;-79
2022/12/24 04:57:19;;;;;;;;;;;12.40;1.00;;;;;;6128089;23;19925;-80
2022/12/24 04:59:45;;;;;;;;;;;12.40;1.00;;;;;;6127665;23;20320;-80
2022/12/24 05:02:11;;;;;;;;;;;12.40;1.00;;;;;;6127890;23;19912;-80
2022/12/24 05:04:36;;;;;;;;;;;12.40;1.00;;;;;;6127576;23;19940;-79
2022/12/24 05:07:02;;;;;;;;;;;12.40;1.00;;;;;;6127763;23;20324;-80
2022/12/24 05:09:28;;;;;;;;;;;12.40;1.00;;;;;;6127962;23;19905;-80
2022/12/24 05:11:53;;;;;;;;;;;12.40;1.00;;;;;;6127605;23;19905;-80
2022/12/24 05:14:19;;;;;;;;;;;12.40;1.00;;;;;;6127449;23;20327;-80
2022/12/24 05:16:44;;;;;;;;;;;12.50;1.00;;;;;;6128178;23;19928;-79
2022/12/24 05:19:10;;;;;;;;;;;12.50;1.00;;;;;;6127476;23;19935;-80
2022/12/24 05:21:36;;;;;;;;;;;12.40;1.00;;;;;;6127641;23;19912;-80
2022/12/24 05:26:48;;;;;;;;;;;12.50;1.00;;;;;;6127115;23;19932;-80
2022/12/24 05:29:14;;;;;;;;;;;12.40;1.00;;;;;;6127559;23;19912;-79
2022/12/24 05:31:40;;;;;;;;;;;12.50;1.00;;;;;;6127389;23;19905;-81
2022/12/24 05:34:07;;;;;;;;;;;12.50;1.00;;;;;;6127268;23;20328;-79
2022/12/24 05:36:32;;;;;;;;;;;12.50;1.00;;;;;;6127329;23;19932;-79
2022/12/24 05:38:58;;;;;;;;;;;12.50;1.00;;;;;;6127278;23;19909;-80
2022/12/24 05:41:24;;;;;;;;;;;12.30;1.00;;;;;;6127496;23;19905;-81
2022/12/24 05:43:50;;;;;;;;;;;12.40;1.00;;;;;;6127377;23;19905;-79
2022/12/24 05:46:17;;;;;;;;;;;12.40;1.00;;;;;;6127279;23;19928;-79
2022/12/24 05:48:43;;;;;;;;;;;12.40;1.00;;;;;;6127215;23;19915;-80
2022/12/24 05:51:09;;;;;;;;;;;12.40;1.00;;;;;;6127200;23;19984;-80
2022/12/24 05:53:35;;;;;;;;;;;12.40;1.00;;;;;;6127081;23;19928;-79
2022/12/24 05:56:03;;;;;;;;;;;12.50;1.00;;;;;;6126952;23;20256;-80
2022/12/24 05:58:29;;;;;;;;;;;12.50;1.00;;;;;;6127727;23;19905;-80
2022/12/24 06:00:54;;;;;;;;;;;12.50;1.00;;;;;;6127820;23;20220;-80
2022/12/24 06:03:20;;;;;;;;;;;12.50;1.00;;;;;;6101103;23;19960;-79
2022/12/24 06:05:46;;;;;;;;;;;12.40;1.00;;;;;;6127135;23;19911;-79
2022/12/24 06:08:11;;;;;;;;;;;12.40;1.00;;;;;;6127113;23;19905;-79
2022/12/24 06:10:37;;;;;;;;;;;12.50;1.00;;;;;;6127007;23;19936;-79
2022/12/24 06:13:02;;;;;;;;;;;12.50;1.00;;;;;;6127702;23;19909;-80
2022/12/24 06:15:28;;;;;;;;;;;12.50;1.00;;;;;;6126703;23;20292;-80
2022/12/24 06:17:53;;;;;;;;;;;12.40;1.00;;;;;;6127085;23;19905;-79
2022/12/24 06:20:19;;;;;;;;;;;12.50;1.00;;;;;;6127668;23;19909;-79
2022/12/24 06:22:44;;;;;;;;;;;12.50;1.00;;;;;;6126928;23;19909;-80
2022/12/24 06:25:10;;;;;;;;;;;12.50;1.00;;;;;;6126959;23;20332;-81
2022/12/24 06:27:35;;;;;;;;;;;12.50;1.00;;;;;;6126933;23;19929;-79
2022/12/24 06:30:01;;;;;;;;;;;12.50;1.00;;;;;;6126988;23;19980;-79
2022/12/24 06:32:27;;;;;;;;;;;12.50;1.00;;;;;;6126954;23;19912;-80
2022/12/24 06:34:52;;;;;;;;;;;12.50;1.00;;;;;;6126843;23;19916;-79
2022/12/24 06:37:18;;;;;;;;;;;12.50;1.00;;;;;;6126890;23;20328;-81
2022/12/24 06:39:45;;;;;;;;;;;12.50;1.00;;;;;;6126996;23;19905;-80
2022/12/24 06:42:11;;;;;;;;;;;12.50;1.00;;;;;;6126895;23;19976;-80
2022/12/24 06:44:36;;;;;;;;;;;12.50;1.00;;;;;;6126851;23;19905;-81
2022/12/24 06:47:02;;;;;;;;;;;12.40;1.00;;;;;;6127218;23;19905;-79
2022/12/24 06:49:27;;;;;;;;;;;12.50;1.00;;;;;;6126816;23;19912;-80
2022/12/24 06:51:53;;;;;;;;;;;12.50;1.00;;;;;;6126861;23;19960;-80
2022/12/24 06:54:18;;;;;;;;;;;12.50;1.00;;;;;;6126658;23;19963;-79
2022/12/24 06:56:44;;;;;;;;;;;12.50;1.00;;;;;;6126645;23;19916;-79
2022/12/24 06:59:10;;;;;;;;;;;12.40;1.00;;;;;;6127184;23;19936;-80
2022/12/24 07:01:35;;;;;;;;;;;12.40;1.00;;;;;;6126797;23;19913;-80
2022/12/24 07:04:01;;;;;;;;;;;12.50;1.00;;;;;;6126814;23;19905;-80
2022/12/24 07:06:28;;;;;;;;;;;12.50;1.00;;;;;;6127052;23;20287;-81
2022/12/24 07:08:54;;;;;;;;;;;12.50;1.00;;;;;;6126725;23;19905;-80
2022/12/24 07:11:20;;;;;;;;;;;12.50;1.00;;;;;;6126870;23;20344;-79
2022/12/24 07:13:46;;;;;;;;;;;12.40;1.00;;;;;;6126609;23;20324;-79
2022/12/24 07:16:12;;;;;;;;;;;12.40;1.00;;;;;;6126747;23;19933;-81
2022/12/24 07:18:37;;;;;;;;;;;12.40;1.00;;;;;;6126699;23;20239;-80
2022/12/24 07:21:04;;;;;;;;;;;12.40;1.00;;;;;;6127144;23;19909;-79
2022/12/24 07:23:30;;;;;;;;;;;12.30;1.00;;;;;;6126979;23;19956;-81
2022/12/24 07:26:05;;;;;;;;;;;12.30;1.00;;;;;;6127022;23;19905;-79
2022/12/24 07:28:30;;;;;;;;;;;12.40;1.00;;;;;;6128512;23;19905;-80
2022/12/24 07:30:56;;;;;;;;;;;12.40;1.00;;;;;;6128488;23;19905;-79
2022/12/24 07:33:22;;;;;;;;;;;12.40;1.00;;;;;;6128609;23;19987;-80
2022/12/24 07:35:48;;;;;;;;;;;12.30;1.00;;;;;;6128506;23;19908;-81
2022/12/24 07:38:14;;;;;;;;;;;12.30;1.00;;;;;;6128485;23;19912;-80
2022/12/24 07:40:39;;;;;;;;;;;12.40;1.00;;;;;;6128366;23;19905;-79
2022/12/24 07:43:05;;;;;;;;;;;12.30;1.00;;;;;;6128601;23;19927;-79
2022/12/24 07:45:30;;;;;;;;;;;12.20;1.00;;;;;;6128356;23;19948;-79
2022/12/24 07:47:56;;;;;;;;;;;12.20;1.00;;;;;;6128476;23;19905;-79
2022/12/24 07:50:21;;;;;;;;;;;12.10;1.00;;;;;;6128295;23;19905;-79
2022/12/24 07:52:47;;;;;;;;;;;12.10;1.00;;;;;;6128222;23;19905;-80
2022/12/24 07:55:13;;;;;;;;;;;12.10;1.00;;;;;;6128094;23;19917;-80
2022/12/24 07:57:40;;;;;;;;;;;12.10;2.30;;;;;;6126972;23;20200;-79
2022/12/24 08:00:06;;;;;;;;;;;12.10;26.30;;;;;;6128313;23;19944;-80
2022/12/24 08:02:32;;;;;;;;;;;12.10;96.70;;;;;;6128755;23;19927;-80
2022/12/24 08:04:57;;;;;;;;;;;12.10;99.90;;;;;;6128137;23;19905;-79
2022/12/24 08:07:23;;;;;;;;;;;12.10;99.90;;;;;;6128267;23;19995;-79
2022/12/24 08:09:48;;;;;;;;;;;12.10;99.90;;;;;;6128271;23;19905;-79
2022/12/24 08:12:14;;;;;;;;;;;12.10;99.90;;;;;;6128089;23;20300;-80
2022/12/24 08:14:39;;;;;;;;;;;12.20;99.90;;;;;;6128205;23;19964;-79
2022/12/24 08:17:05;;;;;;;;;;;12.20;99.90;;;;;;6128048;23;19905;-79
2022/12/24 08:19:30;;;;;;;;;;;12.20;99.90;;;;;;6128103;23;19940;-80
2022/12/24 08:21:56;;;;;;;;;;;12.30;99.90;;;;;;6128300;23;19912;-79
2022/12/24 08:24:22;;;;;;;;;;;12.30;99.90;;;;;;6127985;23;19912;-80
2022/12/24 08:26:47;;;;;;;;;;;12.40;99.90;;;;;;6128134;23;19905;-79
2022/12/24 08:29:13;;;;;;;;;;;12.40;99.90;;;;;;6128162;23;20362;-80
2022/12/24 08:31:38;;;;;;;;;;;12.40;99.90;;;;;;6128004;23;19937;-80
2022/12/24 08:34:05;;;;;;;;;;;12.40;98.00;;;;;;6127814;23;19959;-80
2022/12/24 08:36:31;;;;;;;;;;;12.40;99.90;;;;;;6127712;23;19912;-79
2022/12/24 08:38:56;;;;;;;;;;;12.50;99.90;;;;;;6127869;23;19905;-79
2022/12/24 08:41:22;;;;;;;;;;;12.50;90.40;;;;;;6127966;23;19905;-80
2022/12/24 08:43:47;;;;;;;;;;;12.50;51.40;;;;;;6127825;23;19904;-80
2022/12/24 08:46:13;;;;;;;;;;;12.50;64.90;;;;;;6127968;23;19909;-79
2022/12/24 08:48:39;;;;;;;;;;;12.60;99.90;;;;;;6127862;23;20339;-80
2022/12/24 08:51:08;;;;;;;;;;;12.60;36.40;;;;;;6127686;23;19905;-79
2022/12/24 08:53:34;;;;;;;;;;;12.70;75.10;;;;;;6128111;23;19912;-80
2022/12/24 08:56:06;;;;;;;;;;;12.70;7.60;;;;;;6127840;23;19940;-80
2022/12/24 08:58:31;;;;;;;;;;;12.70;1.00;;;;;;6127888;23;19909;-80
2022/12/24 09:00:57;;;;;;;;;;;12.80;1.00;;;;;;6127616;23;19905;-79
2022/12/24 09:03:23;;;;;;;;;;;12.80;1.00;;;;;;6127747;23;19916;-80
2022/12/24 09:05:48;;;;;;;;;;;12.80;1.00;;;;;;6126071;23;19911;-80
2022/12/24 09:08:14;;;;;;;;;;;12.80;1.00;;;;;;6127632;23;19912;-79
2022/12/24 09:10:39;;;;;;;;;;;12.90;1.00;;;;;;6127552;23;19905;-79
2022/12/24 09:13:05;;;;;;;;;;;12.90;1.00;;;;;;6127774;23;19960;-80
2022/12/24 09:15:31;;;;;;;;;;;12.90;1.00;;;;;;6127568;23;20332;-79
2022/12/24 09:17:56;;;;;;;;;;;13.00;1.00;;;;;;6127441;23;19972;-78
2022/12/24 09:20:22;;;;;;;;;;;13.00;1.00;;;;;;6127417;23;19905;-79
2022/12/24 09:22:47;;;;;;;;;;;13.00;1.00;;;;;;6127450;23;19980;-80
2022/12/24 09:25:13;;;;;;;;;;;13.20;1.00;;;;;;6127612;23;19916;-80
2022/12/24 09:27:38;;;;;;;;;;;13.20;1.00;;;;;;6127518;23;19908;-79
2022/12/24 09:30:05;;;;;;;;;;;13.30;1.00;;;;;;6127446;23;19980;-79
2022/12/24 09:32:30;;;;;;;;;;;13.40;1.00;;;;;;6127593;23;19913;-79
2022/12/24 09:34:56;;;;;;;;;;;13.40;1.00;;;;;;6127457;23;20342;-80
2022/12/24 09:37:22;;;;;;;;;;;13.50;99.90;;;;;;6127246;23;19905;-79
2022/12/24 09:39:47;;;;;;;;;;;13.60;99.90;;;;;;6127280;23;19905;-79
2022/12/24 09:42:16;;;;;;;;;;;13.60;99.90;;;;;;6126754;23;19910;-79
2022/12/24 09:44:45;;;;;;;;;;;13.60;99.90;;;;;;6101014;23;19936;-79
2022/12/24 09:47:31;;;;;;;;;;;13.60;99.90;;;;;;6127247;23;19912;-79
2022/12/24 09:49:58;;;;;;;;;;;13.50;99.90;;;;;;6106142;23;19976;-80
2022/12/24 09:52:34;;;;;;;;;;;13.50;99.90;;;;;;6127430;23;19916;-80
2022/12/24 09:55:04;;;;;;;;;;;13.60;99.90;;;;;;6126929;23;20244;-79
2022/12/24 09:57:35;;;;;;;;;;;13.60;99.90;;;;;;6127737;23;19953;-79
2022/12/24 10:00:01;;;;;;;;;;;13.60;99.90;;;;;;6100794;23;20259;-79
2022/12/24 10:02:26;;;;;;;;;;;13.60;99.90;;;;;;6101039;23;20000;-79
2022/12/24 10:04:53;;;;;;;;;;;13.50;99.90;;;;;;6127184;23;20336;-76
2022/12/24 10:07:25;;;;;;;;;;;13.50;99.90;;;;;;6127024;23;19912;-79
2022/12/24 10:09:54;;;;;;;;;;;13.50;99.90;;;;;;6127346;23;20244;-79
2022/12/24 10:12:23;;;;;;;;;;;13.50;99.90;;;;;;6127249;23;19984;-81
2022/12/24 10:14:58;;;;;;;;;;;13.50;99.90;;;;;;6126869;23;19909;-79
2022/12/24 10:17:24;;;;;;;;;;;13.50;99.90;;;;;;6126994;23;20382;-79
2022/12/24 10:19:50;;;;;;;;;;;13.50;99.90;;;;;;6127150;23;19932;-79
2022/12/24 10:22:34;;;;;;;;;;;13.50;99.90;;;;;;6126981;23;19904;-79
2022/12/24 10:25:00;;;;;;;;;;;13.50;99.90;;;;;;6127528;23;19905;-80
2022/12/24 10:27:29;;;;;;;;;;;13.50;99.90;;;;;;6100984;23;19912;-77
2022/12/24 10:30:01;;;;;;;;;;;13.50;99.90;;;;;;6127040;23;19913;-79
2022/12/24 10:32:31;;;;;;;;;;;13.60;99.90;;;;;;6127028;23;19912;-79
2022/12/24 10:34:58;;;;;;;;;;;13.70;99.90;;;;;;6126824;23;19956;-80
2022/12/24 10:37:24;;;;;;;;;;;13.70;99.90;;;;;;6126830;23;19908;-79
2022/12/24 10:39:51;;;;;;;;;;;13.70;99.90;;;;;;6126860;23;20236;-80
2022/12/24 10:42:17;;;;;;;;;;;13.90;99.90;;;;;;6127242;23;19967;-80
2022/12/24 10:44:46;;;;;;;;;;;13.90;99.90;;;;;;6127045;23;19936;-79
2022/12/24 10:47:12;;;;;;;;;;;13.80;99.90;;;;;;6126871;23;19905;-79
2022/12/24 10:49:43;;;;;;;;;;;13.80;99.90;;;;;;6126852;23;19912;-80
2022/12/24 10:52:13;;;;;;;;;;;13.80;99.90;;;;;;6126714;23;19912;-80
2022/12/24 10:54:59;;;;;;;;;;;13.80;99.90;;;;;;6126747;23;19964;-80
2022/12/24 10:57:25;;;;;;;;;;;13.80;99.90;;;;;;6126586;23;19917;-80
2022/12/24 10:59:54;;;;;;;;;;;14.00;99.90;;;;;;6127065;23;19905;-80
2022/12/24 11:02:25;;;;;;;;;;;14.10;99.90;;;;;;6128818;23;19904;-79
2022/12/24 11:04:51;;;;;;;;;;;14.20;99.90;;;;;;6128866;23;19943;-80
2022/12/24 11:07:18;;;;;;;;;;;14.10;99.90;;;;;;6128674;23;19927;-81
2022/12/24 11:09:53;;;;;;;;;;;14.00;99.90;;;;;;6128732;23;19935;-80
2022/12/24 11:12:21;;;;;;;;;;;14.10;99.90;;;;;;6128881;23;20276;-79
2022/12/24 11:14:47;;;;;;;;;;;14.00;99.90;;;;;;6128568;23;19909;-80
2022/12/24 11:17:20;;;;;;;;;;;14.00;99.90;;;;;;6128656;23;19905;-79
2022/12/24 11:19:47;;;;;;;;;;;13.90;99.90;;;;;;6129318;23;19912;-78
2022/12/24 11:22:17;;;;;;;;;;;13.80;99.90;;;;;;6128525;23;19956;-79
2022/12/24 11:24:43;;;;;;;;;;;13.80;99.90;;;;;;6128545;23;19936;-80
2022/12/24 11:27:27;;;;;;;;;;;13.90;99.90;;;;;;6128516;23;19905;-79
2022/12/24 11:30:10;;;;;;;;;;;13.90;99.90;;;;;;6128794;23;19909;-79
2022/12/24 11:32:36;;;;;;;;;;;13.90;99.90;;;;;;6128636;23;19984;-80
2022/12/24 11:35:05;;;;;;;;;;;13.80;99.90;;;;;;6102380;23;19940;-79
2022/12/24 11:37:31;;;;;;;;;;;13.90;99.90;;;;;;6128739;23;19912;-80
2022/12/24 11:39:59;;;;;;;;;;;14.00;99.90;;;;;;6128441;23;19905;-79
2022/12/24 11:42:27;;;;;;;;;;;14.00;99.90;;;;;;6128393;23;20316;-80
2022/12/24 11:44:53;;;;;;;;;;;14.10;99.90;;;;;;6128500;23;19905;-79
2022/12/24 11:47:30;;;;;;;;;;;14.20;99.90;;;;;;6128371;23;19909;-80
2022/12/24 11:50:16;;;;;;;;;;;14.30;99.90;;;;;;6102062;23;20307;-79
2022/12/24 11:52:42;;;;;;;;;;;14.30;99.90;;;;;;6128414;23;20328;-79
2022/12/24 11:55:16;;;;;;;;;;;14.30;99.90;;;;;;6128272;23;20351;-79
2022/12/24 11:58:02;;;;;;;;;;;14.30;99.90;;;;;;6128359;23;19909;-80
2022/12/24 12:00:28;;;;;;;;;;;14.20;99.90;;;;;;6107421;23;20324;-79
2022/12/24 12:02:55;;;;;;;;;;;14.10;99.90;;;;;;6128670;23;19916;-79
2022/12/24 12:05:23;;;;;;;;;;;14.30;99.90;;;;;;6128588;23;20300;-79
2022/12/24 12:07:50;;;;;;;;;;;14.30;99.90;;;;;;6128427;23;19905;-79
2022/12/24 12:10:19;;;;;;;;;;;14.40;99.90;;;;;;6128176;23;19956;-79
2022/12/24 12:12:58;;;;;;;;;;;14.40;99.90;;;;;;6127704;23;19905;-78
2022/12/24 12:15:26;;;;;;;;;;;14.50;99.90;;;;;;6128229;23;19913;-78
2022/12/24 12:18:12;;;;;;;;;;;14.80;99.90;;;;;;6128045;23;20328;-79
2022/12/24 12:20:40;;;;;;;;;;;14.80;99.90;;;;;;6127171;23;19905;-79
2022/12/24 12:23:20;;;;;;;;;;;15.00;99.90;;;;;;6127968;23;19928;-79
2022/12/24 12:25:56;;;;;;;;;;;15.10;99.90;;;;;;6128130;23;19905;-79
2022/12/24 12:28:25;;;;;;;;;;;15.30;99.90;;;;;;6128275;23;20332;-79
2022/12/24 12:31:17;;;;;;;;;;;15.30;99.90;;;;;;6127865;23;19907;-79
2022/12/24 12:33:54;;;;;;;;;;;15.50;99.90;;;;;;6121930;23;19905;-78
2022/12/24 12:36:22;;;;;;;;;;;15.50;99.90;;;;;;6127867;23;19905;-78
2022/12/24 12:38:49;;;;;;;;;;;15.50;99.90;;;;;;6101929;23;20316;-79
2022/12/24 12:41:17;;;;;;;;;;;15.40;99.90;;;;;;6128062;23;20336;-80
2022/12/24 12:43:52;;;;;;;;;;;15.60;99.90;;;;;;6127857;23;19905;-78
2022/12/24 12:46:27;;;;;;;;;;;15.50;99.90;;;;;;6127855;23;19905;-79
2022/12/24 12:48:53;;;;;;;;;;;15.50;99.90;;;;;;6128026;23;20247;-78
2022/12/24 12:51:31;;;;;;;;;;;15.40;99.90;;;;;;6101442;23;19940;-78
2022/12/24 12:54:02;;;;;;;;;;;15.20;99.90;;;;;;6127617;23;19955;-79
2022/12/24 12:56:32;;;;;;;;;;;15.10;99.90;;;;;;6127436;23;19917;-80
2022/12/24 12:59:01;;;;;;;;;;;15.10;99.90;;;;;;6127905;23;19984;-80
2022/12/24 13:01:33;;;;;;;;;;;15.20;99.90;;;;;;6127651;23;19905;-80
2022/12/24 13:04:10;;;;;;;;;;;15.00;99.90;;;;;;6127626;23;20324;-79
2022/12/24 13:06:36;;;;;;;;;;;14.90;99.90;;;;;;6127834;23;19955;-79
2022/12/24 13:09:10;;;;;;;;;;;14.80;99.90;;;;;;6127731;23;19905;-80
2022/12/24 13:11:54;;;;;;;;;;;14.70;99.90;;;;;;6127563;23;19987;-80
2022/12/24 13:14:39;;;;;;;;;;;14.70;99.90;;;;;;6127480;23;19909;-80
2022/12/24 13:17:22;;;;;;;;;;;14.30;99.90;;;;;;6128245;23;20023;-78
2022/12/24 13:19:48;;;;;;;;;;;13.90;99.90;;;;;;6127527;23;19947;-79
2022/12/24 13:22:14;;;;;;;;;;;13.70;99.90;;;;;;6101508;23;20240;-78
2022/12/24 13:24:45;;;;;;;;;;;13.70;99.90;;;;;;6127502;23;19940;-80
2022/12/24 13:27:11;;;;;;;;;;;13.70;99.90;;;;;;6127619;23;19905;-79
2022/12/24 13:29:39;;;;;;;;;;;13.70;99.90;;;;;;6127510;23;20247;-79
2022/12/24 13:32:20;;;;;;;;;;;13.70;99.90;;;;;;6101324;23;20390;-79
2022/12/24 13:34:50;;;;;;;;;;;13.60;99.90;;;;;;6101216;23;19915;-78
2022/12/24 13:37:31;;;;;;;;;;;13.70;99.90;;;;;;6127300;23;19905;-79
2022/12/24 13:39:59;;;;;;;;;;;13.80;99.90;;;;;;6127280;23;20340;-79
2022/12/24 13:42:43;;;;;;;;;;;14.00;99.90;;;;;;6127264;23;19929;-79
2022/12/24 13:45:27;;;;;;;;;;;14.50;99.90;;;;;;6127466;23;19905;-80
2022/12/24 13:47:53;;;;;;;;;;;15.30;99.90;;;;;;6127261;23;19905;-80
2022/12/24 13:50:23;;;;;;;;;;;15.70;99.90;;;;;;6127241;23;19952;-78
2022/12/24 13:52:52;;;;;;;;;;;15.70;99.90;;;;;;6127381;23;20317;-79
2022/12/24 13:55:18;;;;;;;;;;;16.20;99.90;;;;;;6096015;23;19917;-79
2022/12/24 13:57:44;;;;;;;;;;;16.30;99.90;;;;;;6098261;23;20325;-79
2022/12/24 14:00:27;;;;;;;;;;;15.40;99.90;;;;;;6097868;23;19952;-79
2022/12/24 14:02:53;;;;;;;;;;;14.70;99.90;;;;;;6098112;23;19909;-78
2022/12/24 14:05:25;;;;;;;;;;;14.50;99.90;;;;;;6097845;23;19913;-78
2022/12/24 14:07:51;;;;;;;;;;;14.40;99.90;;;;;;6098059;23;19905;-78
2022/12/24 14:10:24;;;;;;;;;;;14.40;99.90;;;;;;6097843;23;19913;-79
2022/12/24 14:12:51;;;;;;;;;;;14.20;99.90;;;;;;6097800;23;19946;-79
2022/12/24 14:15:35;;;;;;;;;;;14.00;99.90;;;;;;6097868;23;19913;-78
2022/12/24 14:18:00;;;;;;;;;;;13.90;99.90;;;;;;6097792;23;19913;-79
2022/12/24 14:20:26;;;;;;;;;;;13.80;99.90;;;;;;6097722;23;19912;-79
2022/12/24 14:22:52;;;;;;;;;;;14.00;99.90;;;;;;6097832;23;19905;-78
2022/12/24 14:25:22;;;;;;;;;;;14.00;99.90;;;;;;6097861;23;19905;-78
2022/12/24 14:27:53;;;;;;;;;;;14.10;99.90;;;;;;6097849;23;19913;-78
2022/12/24 14:30:19;;;;;;;;;;;14.10;99.90;;;;;;6097748;23;19906;-79
2022/12/24 14:32:45;;;;;;;;;;;14.00;99.90;;;;;;6098421;23;19905;-78
2022/12/24 14:35:18;;;;;;;;;;;14.00;99.90;;;;;;6097387;23;19932;-79